sensor_id;sensor_type;location;lat;lon;timestamp;P1;durP1;ratioP1;P2;durP2;ratioP2
18114;SDS011;9184;54.390;18.620;2023-08-06T00:00:06;4.80;;;2.67;;
18114;SDS011;9184;54.390;18.620;2023-08-06T00:00:38;7.70;;;2.67;;
18114;SDS011;9184;54.390;18.620;2023-08-06T00:01:09;7.90;;;2.63;;
18114;SDS011;9184;54.390;18.620;2023-08-06T00:01:39;7.18;;;2.60;;
18114;SDS011;9184;54.390;18.620;2023-08-06T00:02:10;4.63;;;2.85;;
18114;SDS011;9184;54.390;18.620;2023-08-06T00:02:42;8.18;;;2.90;;
18114;SDS011;9184;54.390;18.620;2023-08-06T00:03:13;5.60;;;3.30;;
18114;SDS011;9184;54.390;18.620;2023-08-06T00:03:43;7.90;;;3.10;;
18114;SDS011;9184;54.390;18.620;2023-08-06T00:04:15;8.52;;;3.22;;
18114;SDS011;9184;54.390;18.620;2023-08-06T00:04:45;6.07;;;2.92;;
18114;SDS011;9184;54.390;18.620;2023-08-06T00:05:16;6.32;;;2.78;;
18114;SDS011;9184;54.390;18.620;2023-08-06T00:05:48;7.40;;;2.97;;
18114;SDS011;9184;54.390;18.620;2023-08-06T00:06:19;7.32;;;3.05;;
18114;SDS011;9184;54.390;18.620;2023-08-06T00:06:50;5.32;;;2.47;;
18114;SDS011;9184;54.390;18.620;2023-08-06T00:07:20;5.68;;;3.05;;
18114;SDS011;9184;54.390;18.620;2023-08-06T00:07:50;9.32;;;3.15;;
18114;SDS011;9184;54.390;18.620;2023-08-06T00:08:22;6.28;;;2.88;;
18114;SDS011;9184;54.390;18.620;2023-08-06T00:08:52;8.93;;;3.72;;
18114;SDS011;9184;54.390;18.620;2023-08-06T00:09:23;5.57;;;2.90;;
18114;SDS011;9184;54.390;18.620;2023-08-06T00:09:54;4.70;;;2.78;;
18114;SDS011;9184;54.390;18.620;2023-08-06T00:10:25;7.88;;;3.10;;
18114;SDS011;9184;54.390;18.620;2023-08-06T00:10:55;9.13;;;2.95;;
18114;SDS011;9184;54.390;18.620;2023-08-06T00:11:26;4.75;;;2.90;;
18114;SDS011;9184;54.390;18.620;2023-08-06T00:11:57;6.82;;;3.38;;
18114;SDS011;9184;54.390;18.620;2023-08-06T00:12:27;6.15;;;2.95;;
18114;SDS011;9184;54.390;18.620;2023-08-06T00:12:58;6.97;;;3.40;;
18114;SDS011;9184;54.390;18.620;2023-08-06T00:13:28;7.47;;;2.97;;
18114;SDS011;9184;54.390;18.620;2023-08-06T00:14:00;5.63;;;3.13;;
18114;SDS011;9184;54.390;18.620;2023-08-06T00:14:30;8.40;;;3.22;;
18114;SDS011;9184;54.390;18.620;2023-08-06T00:15:01;8.32;;;3.58;;
18114;SDS011;9184;54.390;18.620;2023-08-06T00:15:31;6.65;;;2.90;;
18114;SDS011;9184;54.390;18.620;2023-08-06T00:16:09;4.72;;;3.30;;
18114;SDS011;9184;54.390;18.620;2023-08-06T00:16:40;4.78;;;3.20;;
18114;SDS011;9184;54.390;18.620;2023-08-06T00:17:10;7.28;;;3.50;;
18114;SDS011;9184;54.390;18.620;2023-08-06T00:17:43;9.30;;;3.25;;
18114;SDS011;9184;54.390;18.620;2023-08-06T00:18:13;8.43;;;3.42;;
18114;SDS011;9184;54.390;18.620;2023-08-06T00:18:44;6.50;;;3.25;;
18114;SDS011;9184;54.390;18.620;2023-08-06T00:19:14;6.82;;;3.78;;
18114;SDS011;9184;54.390;18.620;2023-08-06T00:19:46;8.13;;;3.00;;
18114;SDS011;9184;54.390;18.620;2023-08-06T00:20:16;4.85;;;3.55;;
18114;SDS011;9184;54.390;18.620;2023-08-06T00:20:47;8.77;;;3.25;;
18114;SDS011;9184;54.390;18.620;2023-08-06T00:21:17;5.20;;;3.17;;
18114;SDS011;9184;54.390;18.620;2023-08-06T00:21:48;5.47;;;3.60;;
18114;SDS011;9184;54.390;18.620;2023-08-06T00:22:19;8.95;;;3.15;;
18114;SDS011;9184;54.390;18.620;2023-08-06T00:22:49;5.68;;;3.58;;
18114;SDS011;9184;54.390;18.620;2023-08-06T00:23:21;6.72;;;3.60;;
18114;SDS011;9184;54.390;18.620;2023-08-06T00:23:52;6.13;;;3.33;;
18114;SDS011;9184;54.390;18.620;2023-08-06T00:24:22;6.30;;;3.33;;
18114;SDS011;9184;54.390;18.620;2023-08-06T00:24:53;11.63;;;4.85;;
18114;SDS011;9184;54.390;18.620;2023-08-06T00:25:27;8.75;;;3.40;;
18114;SDS011;9184;54.390;18.620;2023-08-06T00:25:58;7.53;;;3.33;;
18114;SDS011;9184;54.390;18.620;2023-08-06T00:26:28;6.07;;;3.42;;
18114;SDS011;9184;54.390;18.620;2023-08-06T00:26:58;5.55;;;3.45;;
18114;SDS011;9184;54.390;18.620;2023-08-06T00:27:30;8.32;;;2.83;;
18114;SDS011;9184;54.390;18.620;2023-08-06T00:28:01;10.00;;;3.42;;
18114;SDS011;9184;54.390;18.620;2023-08-06T00:28:31;7.43;;;2.95;;
18114;SDS011;9184;54.390;18.620;2023-08-06T00:29:01;4.25;;;2.90;;
18114;SDS011;9184;54.390;18.620;2023-08-06T00:29:33;6.15;;;3.05;;
18114;SDS011;9184;54.390;18.620;2023-08-06T00:30:04;5.18;;;2.80;;
18114;SDS011;9184;54.390;18.620;2023-08-06T00:30:34;10.52;;;3.45;;
18114;SDS011;9184;54.390;18.620;2023-08-06T00:31:05;8.68;;;3.45;;
18114;SDS011;9184;54.390;18.620;2023-08-06T00:31:36;4.35;;;2.60;;
18114;SDS011;9184;54.390;18.620;2023-08-06T00:32:07;5.35;;;3.33;;
18114;SDS011;9184;54.390;18.620;2023-08-06T00:32:37;7.30;;;3.05;;
18114;SDS011;9184;54.390;18.620;2023-08-06T00:33:09;9.23;;;3.33;;
18114;SDS011;9184;54.390;18.620;2023-08-06T00:33:40;7.40;;;3.65;;
18114;SDS011;9184;54.390;18.620;2023-08-06T00:34:11;8.98;;;3.67;;
18114;SDS011;9184;54.390;18.620;2023-08-06T00:34:41;7.65;;;3.08;;
18114;SDS011;9184;54.390;18.620;2023-08-06T00:35:12;5.93;;;3.20;;
18114;SDS011;9184;54.390;18.620;2023-08-06T00:35:44;7.18;;;3.35;;
18114;SDS011;9184;54.390;18.620;2023-08-06T00:36:14;7.32;;;3.15;;
18114;SDS011;9184;54.390;18.620;2023-08-06T00:36:45;5.40;;;2.85;;
18114;SDS011;9184;54.390;18.620;2023-08-06T00:37:15;7.93;;;3.08;;
18114;SDS011;9184;54.390;18.620;2023-08-06T00:37:47;5.63;;;3.15;;
18114;SDS011;9184;54.390;18.620;2023-08-06T00:38:18;9.45;;;3.30;;
18114;SDS011;9184;54.390;18.620;2023-08-06T00:38:48;7.85;;;3.28;;
18114;SDS011;9184;54.390;18.620;2023-08-06T00:39:19;8.23;;;3.22;;
18114;SDS011;9184;54.390;18.620;2023-08-06T00:39:50;4.80;;;3.45;;
18114;SDS011;9184;54.390;18.620;2023-08-06T00:40:21;5.13;;;3.05;;
18114;SDS011;9184;54.390;18.620;2023-08-06T00:40:52;6.03;;;3.08;;
18114;SDS011;9184;54.390;18.620;2023-08-06T00:41:24;7.15;;;3.33;;
18114;SDS011;9184;54.390;18.620;2023-08-06T00:41:54;5.63;;;3.28;;
18114;SDS011;9184;54.390;18.620;2023-08-06T00:42:25;8.77;;;3.65;;
18114;SDS011;9184;54.390;18.620;2023-08-06T00:42:55;8.68;;;3.42;;
18114;SDS011;9184;54.390;18.620;2023-08-06T00:43:27;6.85;;;3.30;;
18114;SDS011;9184;54.390;18.620;2023-08-06T00:43:57;10.75;;;3.67;;
18114;SDS011;9184;54.390;18.620;2023-08-06T00:44:28;11.05;;;3.58;;
18114;SDS011;9184;54.390;18.620;2023-08-06T00:44:58;11.65;;;3.30;;
18114;SDS011;9184;54.390;18.620;2023-08-06T00:45:30;6.65;;;3.42;;
18114;SDS011;9184;54.390;18.620;2023-08-06T00:46:03;5.72;;;3.45;;
18114;SDS011;9184;54.390;18.620;2023-08-06T00:46:34;6.55;;;3.38;;
18114;SDS011;9184;54.390;18.620;2023-08-06T00:47:05;11.00;;;4.00;;
18114;SDS011;9184;54.390;18.620;2023-08-06T00:47:37;8.27;;;3.50;;
18114;SDS011;9184;54.390;18.620;2023-08-06T00:48:10;11.60;;;3.55;;
18114;SDS011;9184;54.390;18.620;2023-08-06T00:48:41;7.82;;;3.65;;
18114;SDS011;9184;54.390;18.620;2023-08-06T00:49:13;8.00;;;3.53;;
18114;SDS011;9184;54.390;18.620;2023-08-06T00:49:43;8.38;;;4.05;;
18114;SDS011;9184;54.390;18.620;2023-08-06T00:50:14;5.97;;;3.35;;
18114;SDS011;9184;54.390;18.620;2023-08-06T00:50:44;6.82;;;3.38;;
18114;SDS011;9184;54.390;18.620;2023-08-06T00:51:15;8.80;;;3.72;;
18114;SDS011;9184;54.390;18.620;2023-08-06T00:51:46;7.07;;;2.92;;
18114;SDS011;9184;54.390;18.620;2023-08-06T00:52:17;7.97;;;3.53;;
18114;SDS011;9184;54.390;18.620;2023-08-06T00:52:47;6.20;;;3.08;;
18114;SDS011;9184;54.390;18.620;2023-08-06T00:53:19;4.85;;;3.33;;
18114;SDS011;9184;54.390;18.620;2023-08-06T00:53:49;10.32;;;3.42;;
18114;SDS011;9184;54.390;18.620;2023-08-06T00:54:20;11.50;;;3.95;;
18114;SDS011;9184;54.390;18.620;2023-08-06T00:54:50;6.55;;;3.17;;
18114;SDS011;9184;54.390;18.620;2023-08-06T00:55:22;10.00;;;3.58;;
18114;SDS011;9184;54.390;18.620;2023-08-06T00:55:53;6.47;;;3.50;;
18114;SDS011;9184;54.390;18.620;2023-08-06T00:56:23;7.38;;;3.72;;
18114;SDS011;9184;54.390;18.620;2023-08-06T00:56:54;10.20;;;4.00;;
18114;SDS011;9184;54.390;18.620;2023-08-06T00:57:25;5.35;;;3.05;;
18114;SDS011;9184;54.390;18.620;2023-08-06T00:57:57;6.32;;;3.30;;
18114;SDS011;9184;54.390;18.620;2023-08-06T00:58:27;7.32;;;3.28;;
18114;SDS011;9184;54.390;18.620;2023-08-06T00:58:58;4.82;;;3.10;;
18114;SDS011;9184;54.390;18.620;2023-08-06T00:59:28;6.82;;;2.92;;
18114;SDS011;9184;54.390;18.620;2023-08-06T01:00:00;6.50;;;3.55;;
18114;SDS011;9184;54.390;18.620;2023-08-06T01:00:31;8.52;;;3.28;;
18114;SDS011;9184;54.390;18.620;2023-08-06T01:01:01;7.47;;;3.33;;
18114;SDS011;9184;54.390;18.620;2023-08-06T01:01:32;6.93;;;2.83;;
18114;SDS011;9184;54.390;18.620;2023-08-06T01:02:03;5.72;;;2.42;;
18114;SDS011;9184;54.390;18.620;2023-08-06T01:02:34;5.25;;;3.17;;
18114;SDS011;9184;54.390;18.620;2023-08-06T01:03:04;4.82;;;2.97;;
18114;SDS011;9184;54.390;18.620;2023-08-06T01:03:37;6.78;;;3.13;;
18114;SDS011;9184;54.390;18.620;2023-08-06T01:04:08;7.00;;;3.35;;
18114;SDS011;9184;54.390;18.620;2023-08-06T01:04:38;6.75;;;3.35;;
18114;SDS011;9184;54.390;18.620;2023-08-06T01:05:09;5.65;;;3.25;;
18114;SDS011;9184;54.390;18.620;2023-08-06T01:05:40;6.43;;;2.75;;
18114;SDS011;9184;54.390;18.620;2023-08-06T01:06:11;13.50;;;3.67;;
18114;SDS011;9184;54.390;18.620;2023-08-06T01:06:43;10.07;;;3.20;;
18114;SDS011;9184;54.390;18.620;2023-08-06T01:07:19;11.00;;;3.25;;
18114;SDS011;9184;54.390;18.620;2023-08-06T01:07:58;6.35;;;3.13;;
18114;SDS011;9184;54.390;18.620;2023-08-06T01:08:36;4.20;;;2.65;;
18114;SDS011;9184;54.390;18.620;2023-08-06T01:09:13;8.38;;;3.50;;
18114;SDS011;9184;54.390;18.620;2023-08-06T01:09:50;5.10;;;3.20;;
18114;SDS011;9184;54.390;18.620;2023-08-06T01:10:30;8.80;;;3.20;;
18114;SDS011;9184;54.390;18.620;2023-08-06T01:11:09;7.30;;;3.38;;
18114;SDS011;9184;54.390;18.620;2023-08-06T01:11:44;11.00;;;3.40;;
18114;SDS011;9184;54.390;18.620;2023-08-06T01:12:21;6.93;;;3.13;;
18114;SDS011;9184;54.390;18.620;2023-08-06T01:12:57;14.57;;;3.85;;
18114;SDS011;9184;54.390;18.620;2023-08-06T01:13:33;8.70;;;3.67;;
18114;SDS011;9184;54.390;18.620;2023-08-06T01:14:11;6.10;;;3.33;;
18114;SDS011;9184;54.390;18.620;2023-08-06T01:14:45;8.43;;;3.55;;
18114;SDS011;9184;54.390;18.620;2023-08-06T01:15:18;11.02;;;3.83;;
18114;SDS011;9184;54.390;18.620;2023-08-06T01:15:52;12.07;;;4.00;;
18114;SDS011;9184;54.390;18.620;2023-08-06T01:16:23;9.43;;;3.53;;
18114;SDS011;9184;54.390;18.620;2023-08-06T01:16:55;6.03;;;3.50;;
18114;SDS011;9184;54.390;18.620;2023-08-06T01:17:26;9.43;;;3.47;;
18114;SDS011;9184;54.390;18.620;2023-08-06T01:17:57;5.80;;;3.22;;
18114;SDS011;9184;54.390;18.620;2023-08-06T01:18:27;6.82;;;3.90;;
18114;SDS011;9184;54.390;18.620;2023-08-06T01:19:00;12.18;;;4.00;;
18114;SDS011;9184;54.390;18.620;2023-08-06T01:19:30;6.65;;;3.58;;
18114;SDS011;9184;54.390;18.620;2023-08-06T01:20:01;6.45;;;3.67;;
18114;SDS011;9184;54.390;18.620;2023-08-06T01:20:33;7.70;;;4.28;;
18114;SDS011;9184;54.390;18.620;2023-08-06T01:21:04;7.50;;;3.63;;
18114;SDS011;9184;54.390;18.620;2023-08-06T01:21:35;6.60;;;3.42;;
18114;SDS011;9184;54.390;18.620;2023-08-06T01:22:05;5.90;;;3.60;;
18114;SDS011;9184;54.390;18.620;2023-08-06T01:22:36;8.23;;;3.90;;
18114;SDS011;9184;54.390;18.620;2023-08-06T01:23:07;6.93;;;3.65;;
18114;SDS011;9184;54.390;18.620;2023-08-06T01:23:38;9.43;;;4.28;;
18114;SDS011;9184;54.390;18.620;2023-08-06T01:24:08;9.38;;;4.03;;
18114;SDS011;9184;54.390;18.620;2023-08-06T01:24:40;12.90;;;4.88;;
18114;SDS011;9184;54.390;18.620;2023-08-06T01:25:13;5.75;;;3.95;;
18114;SDS011;9184;54.390;18.620;2023-08-06T01:25:50;5.55;;;3.50;;
18114;SDS011;9184;54.390;18.620;2023-08-06T01:26:26;10.50;;;3.75;;
18114;SDS011;9184;54.390;18.620;2023-08-06T01:27:02;6.55;;;3.85;;
18114;SDS011;9184;54.390;18.620;2023-08-06T01:27:37;11.48;;;4.10;;
18114;SDS011;9184;54.390;18.620;2023-08-06T01:28:11;11.05;;;4.03;;
18114;SDS011;9184;54.390;18.620;2023-08-06T01:28:45;7.10;;;4.15;;
18114;SDS011;9184;54.390;18.620;2023-08-06T01:29:19;7.35;;;3.90;;
18114;SDS011;9184;54.390;18.620;2023-08-06T01:29:53;6.00;;;3.72;;
18114;SDS011;9184;54.390;18.620;2023-08-06T01:30:27;6.38;;;3.50;;
18114;SDS011;9184;54.390;18.620;2023-08-06T01:31:01;5.65;;;3.47;;
18114;SDS011;9184;54.390;18.620;2023-08-06T01:31:32;10.95;;;3.70;;
18114;SDS011;9184;54.390;18.620;2023-08-06T01:32:03;5.97;;;3.15;;
18114;SDS011;9184;54.390;18.620;2023-08-06T01:32:35;5.45;;;3.28;;
18114;SDS011;9184;54.390;18.620;2023-08-06T01:33:11;8.32;;;3.28;;
18114;SDS011;9184;54.390;18.620;2023-08-06T01:33:45;11.50;;;3.40;;
18114;SDS011;9184;54.390;18.620;2023-08-06T01:34:16;10.32;;;3.70;;
18114;SDS011;9184;54.390;18.620;2023-08-06T01:34:47;9.57;;;3.97;;
18114;SDS011;9184;54.390;18.620;2023-08-06T01:35:20;8.68;;;3.92;;
18114;SDS011;9184;54.390;18.620;2023-08-06T01:35:53;7.80;;;3.28;;
18114;SDS011;9184;54.390;18.620;2023-08-06T01:36:24;7.18;;;3.42;;
18114;SDS011;9184;54.390;18.620;2023-08-06T01:36:55;5.57;;;3.08;;
18114;SDS011;9184;54.390;18.620;2023-08-06T01:37:27;7.95;;;2.90;;
18114;SDS011;9184;54.390;18.620;2023-08-06T01:37:58;7.85;;;3.00;;
18114;SDS011;9184;54.390;18.620;2023-08-06T01:38:28;4.57;;;2.78;;
18114;SDS011;9184;54.390;18.620;2023-08-06T01:38:59;5.30;;;3.63;;
18114;SDS011;9184;54.390;18.620;2023-08-06T01:39:33;6.93;;;2.90;;
18114;SDS011;9184;54.390;18.620;2023-08-06T01:40:05;5.85;;;2.85;;
18114;SDS011;9184;54.390;18.620;2023-08-06T01:40:36;7.05;;;2.50;;
18114;SDS011;9184;54.390;18.620;2023-08-06T01:41:06;6.43;;;2.83;;
18114;SDS011;9184;54.390;18.620;2023-08-06T01:41:38;5.68;;;3.17;;
18114;SDS011;9184;54.390;18.620;2023-08-06T01:42:08;6.30;;;2.80;;
18114;SDS011;9184;54.390;18.620;2023-08-06T01:42:39;9.38;;;3.30;;
18114;SDS011;9184;54.390;18.620;2023-08-06T01:43:09;12.80;;;4.30;;
18114;SDS011;9184;54.390;18.620;2023-08-06T01:43:41;8.45;;;2.90;;
18114;SDS011;9184;54.390;18.620;2023-08-06T01:44:11;10.15;;;3.75;;
18114;SDS011;9184;54.390;18.620;2023-08-06T01:44:42;8.30;;;3.58;;
18114;SDS011;9184;54.390;18.620;2023-08-06T01:45:12;5.35;;;3.20;;
18114;SDS011;9184;54.390;18.620;2023-08-06T01:45:44;6.65;;;3.42;;
18114;SDS011;9184;54.390;18.620;2023-08-06T01:46:14;10.75;;;3.88;;
18114;SDS011;9184;54.390;18.620;2023-08-06T01:46:45;7.60;;;3.75;;
18114;SDS011;9184;54.390;18.620;2023-08-06T01:47:15;6.43;;;3.55;;
18114;SDS011;9184;54.390;18.620;2023-08-06T01:47:46;10.30;;;3.20;;
18114;SDS011;9184;54.390;18.620;2023-08-06T01:48:17;5.97;;;3.53;;
18114;SDS011;9184;54.390;18.620;2023-08-06T01:48:47;9.73;;;3.15;;
18114;SDS011;9184;54.390;18.620;2023-08-06T01:49:19;7.68;;;3.50;;
18114;SDS011;9184;54.390;18.620;2023-08-06T01:49:49;13.07;;;3.65;;
18114;SDS011;9184;54.390;18.620;2023-08-06T01:50:20;6.80;;;3.33;;
18114;SDS011;9184;54.390;18.620;2023-08-06T01:50:50;11.40;;;4.15;;
18114;SDS011;9184;54.390;18.620;2023-08-06T01:51:23;9.10;;;3.40;;
18114;SDS011;9184;54.390;18.620;2023-08-06T01:51:53;5.75;;;3.05;;
18114;SDS011;9184;54.390;18.620;2023-08-06T01:52:24;6.97;;;2.95;;
18114;SDS011;9184;54.390;18.620;2023-08-06T01:52:54;7.50;;;3.28;;
18114;SDS011;9184;54.390;18.620;2023-08-06T01:53:26;6.93;;;3.22;;
18114;SDS011;9184;54.390;18.620;2023-08-06T01:53:56;7.47;;;3.00;;
18114;SDS011;9184;54.390;18.620;2023-08-06T01:54:27;7.38;;;2.72;;
18114;SDS011;9184;54.390;18.620;2023-08-06T01:54:58;8.48;;;3.45;;
18114;SDS011;9184;54.390;18.620;2023-08-06T01:55:29;6.22;;;3.10;;
18114;SDS011;9184;54.390;18.620;2023-08-06T01:56:00;10.27;;;3.80;;
18114;SDS011;9184;54.390;18.620;2023-08-06T01:56:30;9.32;;;3.13;;
18114;SDS011;9184;54.390;18.620;2023-08-06T01:57:01;9.38;;;3.47;;
18114;SDS011;9184;54.390;18.620;2023-08-06T01:57:32;12.38;;;3.60;;
18114;SDS011;9184;54.390;18.620;2023-08-06T01:58:03;10.60;;;3.45;;
18114;SDS011;9184;54.390;18.620;2023-08-06T01:58:33;5.13;;;2.72;;
18114;SDS011;9184;54.390;18.620;2023-08-06T01:59:03;7.25;;;3.10;;
18114;SDS011;9184;54.390;18.620;2023-08-06T01:59:35;5.45;;;2.92;;
18114;SDS011;9184;54.390;18.620;2023-08-06T02:00:06;4.85;;;3.10;;
18114;SDS011;9184;54.390;18.620;2023-08-06T02:00:37;9.57;;;3.70;;
18114;SDS011;9184;54.390;18.620;2023-08-06T02:01:07;7.50;;;3.95;;
18114;SDS011;9184;54.390;18.620;2023-08-06T02:01:39;8.63;;;3.40;;
18114;SDS011;9184;54.390;18.620;2023-08-06T02:02:09;6.65;;;4.40;;
18114;SDS011;9184;54.390;18.620;2023-08-06T02:02:40;5.50;;;3.83;;
18114;SDS011;9184;54.390;18.620;2023-08-06T02:03:12;10.00;;;4.03;;
18114;SDS011;9184;54.390;18.620;2023-08-06T02:03:42;16.55;;;10.43;;
18114;SDS011;9184;54.390;18.620;2023-08-06T02:04:12;12.65;;;3.90;;
18114;SDS011;9184;54.390;18.620;2023-08-06T02:04:43;11.80;;;4.57;;
18114;SDS011;9184;54.390;18.620;2023-08-06T02:05:14;7.40;;;3.97;;
18114;SDS011;9184;54.390;18.620;2023-08-06T02:05:45;5.93;;;3.83;;
18114;SDS011;9184;54.390;18.620;2023-08-06T02:06:15;10.65;;;5.13;;
18114;SDS011;9184;54.390;18.620;2023-08-06T02:06:48;7.70;;;4.20;;
18114;SDS011;9184;54.390;18.620;2023-08-06T02:07:19;12.75;;;5.47;;
18114;SDS011;9184;54.390;18.620;2023-08-06T02:07:49;6.18;;;3.92;;
18114;SDS011;9184;54.390;18.620;2023-08-06T02:08:20;8.88;;;5.10;;
18114;SDS011;9184;54.390;18.620;2023-08-06T02:08:50;12.00;;;4.63;;
18114;SDS011;9184;54.390;18.620;2023-08-06T02:09:22;9.15;;;4.00;;
18114;SDS011;9184;54.390;18.620;2023-08-06T02:09:52;10.10;;;4.32;;
18114;SDS011;9184;54.390;18.620;2023-08-06T02:10:23;7.63;;;4.07;;
18114;SDS011;9184;54.390;18.620;2023-08-06T02:10:53;12.10;;;5.20;;
18114;SDS011;9184;54.390;18.620;2023-08-06T02:11:25;11.25;;;4.78;;
18114;SDS011;9184;54.390;18.620;2023-08-06T02:11:55;8.30;;;4.90;;
18114;SDS011;9184;54.390;18.620;2023-08-06T02:12:25;6.70;;;3.70;;
18114;SDS011;9184;54.390;18.620;2023-08-06T02:12:56;9.07;;;3.95;;
18114;SDS011;9184;54.390;18.620;2023-08-06T02:13:26;8.68;;;4.10;;
18114;SDS011;9184;54.390;18.620;2023-08-06T02:13:58;9.77;;;4.20;;
18114;SDS011;9184;54.390;18.620;2023-08-06T02:14:28;12.60;;;4.38;;
18114;SDS011;9184;54.390;18.620;2023-08-06T02:14:59;7.60;;;4.18;;
18114;SDS011;9184;54.390;18.620;2023-08-06T02:15:30;13.15;;;4.78;;
18114;SDS011;9184;54.390;18.620;2023-08-06T02:16:01;8.20;;;4.38;;
18114;SDS011;9184;54.390;18.620;2023-08-06T02:16:32;6.53;;;4.15;;
18114;SDS011;9184;54.390;18.620;2023-08-06T02:17:02;10.20;;;4.18;;
18114;SDS011;9184;54.390;18.620;2023-08-06T02:17:34;8.10;;;4.30;;
18114;SDS011;9184;54.390;18.620;2023-08-06T02:18:04;13.25;;;4.60;;
18114;SDS011;9184;54.390;18.620;2023-08-06T02:18:34;13.20;;;4.97;;
18114;SDS011;9184;54.390;18.620;2023-08-06T02:19:05;9.57;;;4.85;;
18114;SDS011;9184;54.390;18.620;2023-08-06T02:19:36;10.00;;;5.13;;
18114;SDS011;9184;54.390;18.620;2023-08-06T02:20:07;11.07;;;4.53;;
18114;SDS011;9184;54.390;18.620;2023-08-06T02:20:38;7.97;;;4.72;;
18114;SDS011;9184;54.390;18.620;2023-08-06T02:21:08;12.05;;;5.15;;
18114;SDS011;9184;54.390;18.620;2023-08-06T02:21:40;9.50;;;4.57;;
18114;SDS011;9184;54.390;18.620;2023-08-06T02:22:12;6.32;;;4.75;;
18114;SDS011;9184;54.390;18.620;2023-08-06T02:22:43;11.73;;;4.93;;
18114;SDS011;9184;54.390;18.620;2023-08-06T02:23:14;9.65;;;4.43;;
18114;SDS011;9184;54.390;18.620;2023-08-06T02:23:45;12.20;;;4.43;;
18114;SDS011;9184;54.390;18.620;2023-08-06T02:24:15;9.20;;;4.07;;
18114;SDS011;9184;54.390;18.620;2023-08-06T02:24:46;6.85;;;4.65;;
18114;SDS011;9184;54.390;18.620;2023-08-06T02:25:17;7.88;;;4.03;;
18114;SDS011;9184;54.390;18.620;2023-08-06T02:25:48;15.23;;;4.20;;
18114;SDS011;9184;54.390;18.620;2023-08-06T02:26:18;10.32;;;5.25;;
18114;SDS011;9184;54.390;18.620;2023-08-06T02:26:49;6.72;;;4.95;;
18114;SDS011;9184;54.390;18.620;2023-08-06T02:27:21;9.02;;;5.10;;
18114;SDS011;9184;54.390;18.620;2023-08-06T02:27:52;9.40;;;5.63;;
18114;SDS011;9184;54.390;18.620;2023-08-06T02:28:23;9.80;;;4.50;;
18114;SDS011;9184;54.390;18.620;2023-08-06T02:28:53;8.00;;;5.55;;
18114;SDS011;9184;54.390;18.620;2023-08-06T02:29:24;12.40;;;4.57;;
18114;SDS011;9184;54.390;18.620;2023-08-06T02:29:56;12.25;;;5.47;;
18114;SDS011;9184;54.390;18.620;2023-08-06T02:30:26;10.20;;;5.32;;
18114;SDS011;9184;54.390;18.620;2023-08-06T02:30:57;9.45;;;4.60;;
18114;SDS011;9184;54.390;18.620;2023-08-06T02:31:28;7.43;;;3.97;;
18114;SDS011;9184;54.390;18.620;2023-08-06T02:32:00;7.72;;;4.30;;
18114;SDS011;9184;54.390;18.620;2023-08-06T02:32:32;9.65;;;4.90;;
18114;SDS011;9184;54.390;18.620;2023-08-06T02:33:05;8.27;;;3.70;;
18114;SDS011;9184;54.390;18.620;2023-08-06T02:33:36;12.82;;;4.53;;
18114;SDS011;9184;54.390;18.620;2023-08-06T02:34:07;13.23;;;5.20;;
18114;SDS011;9184;54.390;18.620;2023-08-06T02:34:38;10.35;;;4.88;;
18114;SDS011;9184;54.390;18.620;2023-08-06T02:35:09;11.25;;;4.85;;
18114;SDS011;9184;54.390;18.620;2023-08-06T02:35:39;9.00;;;5.25;;
18114;SDS011;9184;54.390;18.620;2023-08-06T02:36:11;10.27;;;5.22;;
18114;SDS011;9184;54.390;18.620;2023-08-06T02:36:41;7.43;;;4.80;;
18114;SDS011;9184;54.390;18.620;2023-08-06T02:37:15;12.68;;;4.90;;
18114;SDS011;9184;54.390;18.620;2023-08-06T02:37:46;10.07;;;4.45;;
18114;SDS011;9184;54.390;18.620;2023-08-06T02:38:18;10.77;;;5.15;;
18114;SDS011;9184;54.390;18.620;2023-08-06T02:38:49;12.32;;;6.72;;
18114;SDS011;9184;54.390;18.620;2023-08-06T02:39:20;7.88;;;5.18;;
18114;SDS011;9184;54.390;18.620;2023-08-06T02:39:52;17.65;;;5.07;;
18114;SDS011;9184;54.390;18.620;2023-08-06T02:40:23;10.85;;;4.47;;
18114;SDS011;9184;54.390;18.620;2023-08-06T02:40:53;9.38;;;4.53;;
18114;SDS011;9184;54.390;18.620;2023-08-06T02:41:24;11.18;;;5.03;;
18114;SDS011;9184;54.390;18.620;2023-08-06T02:41:56;10.30;;;4.85;;
18114;SDS011;9184;54.390;18.620;2023-08-06T02:42:26;8.93;;;5.00;;
18114;SDS011;9184;54.390;18.620;2023-08-06T02:42:56;13.07;;;5.40;;
18114;SDS011;9184;54.390;18.620;2023-08-06T02:43:27;10.27;;;5.20;;
18114;SDS011;9184;54.390;18.620;2023-08-06T02:43:58;8.52;;;4.90;;
18114;SDS011;9184;54.390;18.620;2023-08-06T02:44:29;14.15;;;5.88;;
18114;SDS011;9184;54.390;18.620;2023-08-06T02:44:59;7.82;;;5.32;;
18114;SDS011;9184;54.390;18.620;2023-08-06T02:45:30;12.38;;;5.53;;
18114;SDS011;9184;54.390;18.620;2023-08-06T02:46:02;15.30;;;5.43;;
18114;SDS011;9184;54.390;18.620;2023-08-06T02:46:32;8.23;;;4.95;;
18114;SDS011;9184;54.390;18.620;2023-08-06T02:47:03;11.32;;;5.38;;
18114;SDS011;9184;54.390;18.620;2023-08-06T02:47:35;14.32;;;5.60;;
18114;SDS011;9184;54.390;18.620;2023-08-06T02:48:05;8.98;;;5.57;;
18114;SDS011;9184;54.390;18.620;2023-08-06T02:48:36;11.80;;;5.50;;
18114;SDS011;9184;54.390;18.620;2023-08-06T02:49:08;10.55;;;5.80;;
18114;SDS011;9184;54.390;18.620;2023-08-06T02:49:38;10.43;;;5.15;;
18114;SDS011;9184;54.390;18.620;2023-08-06T02:50:09;14.68;;;6.75;;
18114;SDS011;9184;54.390;18.620;2023-08-06T02:50:40;12.80;;;6.15;;
18114;SDS011;9184;54.390;18.620;2023-08-06T02:51:11;11.43;;;5.18;;
18114;SDS011;9184;54.390;18.620;2023-08-06T02:51:44;13.85;;;5.65;;
18114;SDS011;9184;54.390;18.620;2023-08-06T02:52:16;13.75;;;5.97;;
18114;SDS011;9184;54.390;18.620;2023-08-06T02:52:47;9.10;;;6.00;;
18114;SDS011;9184;54.390;18.620;2023-08-06T02:53:18;10.27;;;5.85;;
18114;SDS011;9184;54.390;18.620;2023-08-06T02:53:49;9.10;;;4.75;;
18114;SDS011;9184;54.390;18.620;2023-08-06T02:54:20;10.23;;;5.95;;
18114;SDS011;9184;54.390;18.620;2023-08-06T02:54:51;16.80;;;6.03;;
18114;SDS011;9184;54.390;18.620;2023-08-06T02:55:21;15.93;;;7.35;;
18114;SDS011;9184;54.390;18.620;2023-08-06T02:55:53;12.68;;;6.55;;
18114;SDS011;9184;54.390;18.620;2023-08-06T02:56:24;10.15;;;6.85;;
18114;SDS011;9184;54.390;18.620;2023-08-06T02:56:56;12.73;;;6.38;;
18114;SDS011;9184;54.390;18.620;2023-08-06T02:57:27;13.85;;;6.63;;
18114;SDS011;9184;54.390;18.620;2023-08-06T02:57:58;11.05;;;6.18;;
18114;SDS011;9184;54.390;18.620;2023-08-06T02:58:29;16.67;;;5.95;;
18114;SDS011;9184;54.390;18.620;2023-08-06T02:58:59;14.15;;;6.32;;
18114;SDS011;9184;54.390;18.620;2023-08-06T02:59:30;19.75;;;7.53;;
18114;SDS011;9184;54.390;18.620;2023-08-06T03:00:01;13.07;;;6.10;;
18114;SDS011;9184;54.390;18.620;2023-08-06T03:00:33;16.83;;;7.10;;
18114;SDS011;9184;54.390;18.620;2023-08-06T03:01:04;15.68;;;6.65;;
18114;SDS011;9184;54.390;18.620;2023-08-06T03:01:35;11.20;;;6.63;;
18114;SDS011;9184;54.390;18.620;2023-08-06T03:02:06;15.48;;;6.72;;
18114;SDS011;9184;54.390;18.620;2023-08-06T03:02:38;14.73;;;7.13;;
18114;SDS011;9184;54.390;18.620;2023-08-06T03:03:08;13.48;;;7.22;;
18114;SDS011;9184;54.390;18.620;2023-08-06T03:03:39;18.73;;;6.38;;
18114;SDS011;9184;54.390;18.620;2023-08-06T03:04:10;10.93;;;7.00;;
18114;SDS011;9184;54.390;18.620;2023-08-06T03:04:41;15.43;;;6.63;;
18114;SDS011;9184;54.390;18.620;2023-08-06T03:05:12;13.38;;;6.93;;
18114;SDS011;9184;54.390;18.620;2023-08-06T03:05:50;16.42;;;7.53;;
18114;SDS011;9184;54.390;18.620;2023-08-06T03:06:22;21.02;;;7.10;;
18114;SDS011;9184;54.390;18.620;2023-08-06T03:06:52;10.88;;;6.28;;
18114;SDS011;9184;54.390;18.620;2023-08-06T03:07:24;14.80;;;7.28;;
18114;SDS011;9184;54.390;18.620;2023-08-06T03:07:55;10.65;;;5.80;;